sensor_id;sensor_type;location;lat;lon;timestamp;P1;durP1;ratioP1;P2;durP2;ratioP2
71141;SDS011;58808;59.366;17.970;2023-03-21T00:00:37;2.42;;;2.22;;
71141;SDS011;58808;59.366;17.970;2023-03-21T00:03:03;2.85;;;2.55;;
71141;SDS011;58808;59.366;17.970;2023-03-21T00:05:29;3.22;;;2.30;;
71141;SDS011;58808;59.366;17.970;2023-03-21T00:07:55;3.17;;;2.40;;
71141;SDS011;58808;59.366;17.970;2023-03-21T00:10:21;3.92;;;2.47;;
71141;SDS011;58808;59.366;17.970;2023-03-21T00:12:47;3.22;;;2.88;;
71141;SDS011;58808;59.366;17.970;2023-03-21T00:15:19;8.88;;;3.10;;
71141;SDS011;58808;59.366;17.970;2023-03-21T00:17:45;6.88;;;2.63;;
71141;SDS011;58808;59.366;17.970;2023-03-21T00:20:14;3.00;;;2.70;;
71141;SDS011;58808;59.366;17.970;2023-03-21T00:22:41;5.57;;;2.88;;
71141;SDS011;58808;59.366;17.970;2023-03-21T00:25:07;3.58;;;2.70;;
71141;SDS011;58808;59.366;17.970;2023-03-21T00:27:35;3.60;;;2.85;;
71141;SDS011;58808;59.366;17.970;2023-03-21T00:30:01;3.90;;;2.72;;
71141;SDS011;58808;59.366;17.970;2023-03-21T00:32:28;9.82;;;3.05;;
71141;SDS011;58808;59.366;17.970;2023-03-21T00:34:53;3.00;;;2.50;;
71141;SDS011;58808;59.366;17.970;2023-03-21T00:37:19;3.42;;;2.75;;
71141;SDS011;58808;59.366;17.970;2023-03-21T00:39:46;3.92;;;2.90;;
71141;SDS011;58808;59.366;17.970;2023-03-21T00:42:16;6.07;;;3.42;;
71141;SDS011;58808;59.366;17.970;2023-03-21T00:44:43;10.68;;;3.03;;
71141;SDS011;58808;59.366;17.970;2023-03-21T00:47:12;15.25;;;3.38;;
71141;SDS011;58808;59.366;17.970;2023-03-21T00:49:38;17.17;;;3.25;;
71141;SDS011;58808;59.366;17.970;2023-03-21T00:52:05;11.52;;;3.17;;
71141;SDS011;58808;59.366;17.970;2023-03-21T00:54:33;4.80;;;3.53;;
71141;SDS011;58808;59.366;17.970;2023-03-21T00:56:59;4.43;;;3.50;;
71141;SDS011;58808;59.366;17.970;2023-03-21T00:59:26;5.05;;;3.33;;
71141;SDS011;58808;59.366;17.970;2023-03-21T01:01:52;17.50;;;3.08;;
71141;SDS011;58808;59.366;17.970;2023-03-21T01:04:18;4.45;;;3.40;;
71141;SDS011;58808;59.366;17.970;2023-03-21T01:06:45;4.53;;;2.90;;
71141;SDS011;58808;59.366;17.970;2023-03-21T01:09:13;3.88;;;3.00;;
71141;SDS011;58808;59.366;17.970;2023-03-21T01:11:40;3.88;;;2.75;;
71141;SDS011;58808;59.366;17.970;2023-03-21T01:14:07;3.80;;;3.22;;
71141;SDS011;58808;59.366;17.970;2023-03-21T01:16:34;3.75;;;2.85;;
71141;SDS011;58808;59.366;17.970;2023-03-21T01:19:00;2.88;;;2.58;;
71141;SDS011;58808;59.366;17.970;2023-03-21T01:21:27;3.38;;;2.67;;
71141;SDS011;58808;59.366;17.970;2023-03-21T01:23:53;3.20;;;2.90;;
71141;SDS011;58808;59.366;17.970;2023-03-21T01:26:19;3.72;;;3.20;;
71141;SDS011;58808;59.366;17.970;2023-03-21T01:28:44;4.70;;;3.28;;
71141;SDS011;58808;59.366;17.970;2023-03-21T01:31:11;3.30;;;3.00;;
71141;SDS011;58808;59.366;17.970;2023-03-21T01:33:39;8.77;;;3.42;;
71141;SDS011;58808;59.366;17.970;2023-03-21T01:36:05;3.97;;;3.30;;
71141;SDS011;58808;59.366;17.970;2023-03-21T01:38:32;6.25;;;3.50;;
71141;SDS011;58808;59.366;17.970;2023-03-21T01:41:00;13.73;;;3.45;;
71141;SDS011;58808;59.366;17.970;2023-03-21T01:48:43;6.97;;;2.72;;
71141;SDS011;58808;59.366;17.970;2023-03-21T01:53:36;6.78;;;2.95;;
71141;SDS011;58808;59.366;17.970;2023-03-21T01:56:10;10.95;;;2.72;;
71141;SDS011;58808;59.366;17.970;2023-03-21T01:58:40;3.10;;;2.30;;
71141;SDS011;58808;59.366;17.970;2023-03-21T02:01:07;7.00;;;2.50;;
71141;SDS011;58808;59.366;17.970;2023-03-21T02:03:34;24.30;;;2.70;;
71141;SDS011;58808;59.366;17.970;2023-03-21T02:06:10;14.48;;;2.40;;
71141;SDS011;58808;59.366;17.970;2023-03-21T02:08:39;12.32;;;2.53;;
71141;SDS011;58808;59.366;17.970;2023-03-21T02:11:06;9.70;;;2.22;;
71141;SDS011;58808;59.366;17.970;2023-03-21T02:13:34;3.15;;;2.83;;
71141;SDS011;58808;59.366;17.970;2023-03-21T02:26:33;22.92;;;2.83;;
71141;SDS011;58808;59.366;17.970;2023-03-21T02:31:56;18.40;;;2.60;;
71141;SDS011;58808;59.366;17.970;2023-03-21T02:42:48;20.70;;;3.08;;
71141;SDS011;58808;59.366;17.970;2023-03-21T02:45:27;19.25;;;6.90;;
71141;SDS011;58808;59.366;17.970;2023-03-21T02:48:04;28.90;;;3.30;;
71141;SDS011;58808;59.366;17.970;2023-03-21T02:53:10;13.35;;;3.60;;
71141;SDS011;58808;59.366;17.970;2023-03-21T02:55:39;14.18;;;3.22;;
71141;SDS011;58808;59.366;17.970;2023-03-21T02:58:08;7.45;;;3.17;;
71141;SDS011;58808;59.366;17.970;2023-03-21T03:00:36;13.75;;;3.75;;
71141;SDS011;58808;59.366;17.970;2023-03-21T03:03:03;6.57;;;3.03;;
71141;SDS011;58808;59.366;17.970;2023-03-21T03:05:31;3.38;;;2.95;;
71141;SDS011;58808;59.366;17.970;2023-03-21T03:19:21;4.85;;;3.47;;
71141;SDS011;58808;59.366;17.970;2023-03-21T03:22:03;14.13;;;2.65;;
71141;SDS011;58808;59.366;17.970;2023-03-21T03:24:41;3.58;;;3.00;;
71141;SDS011;58808;59.366;17.970;2023-03-21T03:27:10;21.30;;;2.47;;
71141;SDS011;58808;59.366;17.970;2023-03-21T03:29:41;15.40;;;2.47;;
71141;SDS011;58808;59.366;17.970;2023-03-21T03:32:15;9.88;;;2.60;;
71141;SDS011;58808;59.366;17.970;2023-03-21T03:34:49;2.50;;;2.30;;
71141;SDS011;58808;59.366;17.970;2023-03-21T03:37:21;4.05;;;2.58;;
71141;SDS011;58808;59.366;17.970;2023-03-21T03:39:58;2.53;;;2.33;;
71141;SDS011;58808;59.366;17.970;2023-03-21T03:42:40;4.93;;;2.60;;
71141;SDS011;58808;59.366;17.970;2023-03-21T03:45:12;2.63;;;2.20;;
71141;SDS011;58808;59.366;17.970;2023-03-21T03:50:15;22.77;;;2.70;;
71141;SDS011;58808;59.366;17.970;2023-03-21T03:52:50;27.80;;;4.40;;
71141;SDS011;58808;59.366;17.970;2023-03-21T03:55:20;19.85;;;2.85;;
71141;SDS011;58808;59.366;17.970;2023-03-21T03:57:47;32.20;;;2.80;;
71141;SDS011;58808;59.366;17.970;2023-03-21T04:00:14;18.23;;;3.33;;
71141;SDS011;58808;59.366;17.970;2023-03-21T04:02:41;8.68;;;2.90;;
71141;SDS011;58808;59.366;17.970;2023-03-21T04:05:07;4.38;;;2.70;;
71141;SDS011;58808;59.366;17.970;2023-03-21T04:07:33;16.05;;;2.85;;
71141;SDS011;58808;59.366;17.970;2023-03-21T04:10:00;8.93;;;3.20;;
71141;SDS011;58808;59.366;17.970;2023-03-21T04:12:25;7.95;;;4.35;;
71141;SDS011;58808;59.366;17.970;2023-03-21T04:14:51;7.78;;;3.80;;
71141;SDS011;58808;59.366;17.970;2023-03-21T04:17:17;16.77;;;2.60;;
71141;SDS011;58808;59.366;17.970;2023-03-21T04:19:43;8.10;;;2.88;;
71141;SDS011;58808;59.366;17.970;2023-03-21T04:22:10;18.15;;;3.08;;
71141;SDS011;58808;59.366;17.970;2023-03-21T04:24:37;3.95;;;2.80;;
71141;SDS011;58808;59.366;17.970;2023-03-21T04:27:03;18.88;;;2.58;;
71141;SDS011;58808;59.366;17.970;2023-03-21T04:29:30;16.05;;;2.38;;
71141;SDS011;58808;59.366;17.970;2023-03-21T04:31:57;21.35;;;3.10;;
71141;SDS011;58808;59.366;17.970;2023-03-21T04:34:23;34.58;;;4.07;;
71141;SDS011;58808;59.366;17.970;2023-03-21T04:36:55;10.02;;;2.13;;
71141;SDS011;58808;59.366;17.970;2023-03-21T04:39:21;8.32;;;2.78;;
71141;SDS011;58808;59.366;17.970;2023-03-21T04:41:48;12.20;;;2.72;;
71141;SDS011;58808;59.366;17.970;2023-03-21T04:44:14;21.83;;;2.42;;
71141;SDS011;58808;59.366;17.970;2023-03-21T04:46:41;4.50;;;2.38;;
71141;SDS011;58808;59.366;17.970;2023-03-21T04:49:08;11.32;;;3.00;;
71141;SDS011;58808;59.366;17.970;2023-03-21T04:51:34;4.88;;;2.58;;
71141;SDS011;58808;59.366;17.970;2023-03-21T04:54:01;19.20;;;2.83;;
71141;SDS011;58808;59.366;17.970;2023-03-21T04:56:27;19.40;;;2.35;;
71141;SDS011;58808;59.366;17.970;2023-03-21T04:59:02;8.15;;;2.40;;
71141;SDS011;58808;59.366;17.970;2023-03-21T05:01:31;15.70;;;2.30;;
71141;SDS011;58808;59.366;17.970;2023-03-21T05:03:58;11.73;;;1.95;;
71141;SDS011;58808;59.366;17.970;2023-03-21T05:06:25;18.80;;;2.63;;
71141;SDS011;58808;59.366;17.970;2023-03-21T05:08:52;23.48;;;2.60;;
71141;SDS011;58808;59.366;17.970;2023-03-21T05:11:24;18.17;;;3.03;;
71141;SDS011;58808;59.366;17.970;2023-03-21T05:13:51;2.70;;;2.50;;
71141;SDS011;58808;59.366;17.970;2023-03-21T05:16:17;10.40;;;2.45;;
71141;SDS011;58808;59.366;17.970;2023-03-21T05:18:42;24.83;;;3.00;;
71141;SDS011;58808;59.366;17.970;2023-03-21T05:21:08;25.13;;;9.23;;
71141;SDS011;58808;59.366;17.970;2023-03-21T05:23:35;34.50;;;4.82;;
71141;SDS011;58808;59.366;17.970;2023-03-21T05:26:06;9.95;;;6.53;;
71141;SDS011;58808;59.366;17.970;2023-03-21T05:28:33;19.13;;;4.05;;
71141;SDS011;58808;59.366;17.970;2023-03-21T05:31:03;22.42;;;3.55;;
71141;SDS011;58808;59.366;17.970;2023-03-21T05:33:30;25.27;;;3.20;;
71141;SDS011;58808;59.366;17.970;2023-03-21T05:35:56;34.10;;;4.55;;
71141;SDS011;58808;59.366;17.970;2023-03-21T05:38:23;15.15;;;5.38;;
71141;SDS011;58808;59.366;17.970;2023-03-21T05:40:50;34.17;;;15.88;;
71141;SDS011;58808;59.366;17.970;2023-03-21T05:43:17;28.38;;;8.07;;
71141;SDS011;58808;59.366;17.970;2023-03-21T05:45:43;14.32;;;5.32;;
71141;SDS011;58808;59.366;17.970;2023-03-21T05:48:09;8.63;;;7.47;;
71141;SDS011;58808;59.366;17.970;2023-03-21T05:50:35;21.75;;;20.00;;
71141;SDS011;58808;59.366;17.970;2023-03-21T05:53:03;16.75;;;6.43;;
71141;SDS011;58808;59.366;17.970;2023-03-21T05:55:28;31.58;;;9.57;;
71141;SDS011;58808;59.366;17.970;2023-03-21T05:57:54;27.42;;;9.88;;
71141;SDS011;58808;59.366;17.970;2023-03-21T06:00:20;35.92;;;5.50;;
71141;SDS011;58808;59.366;17.970;2023-03-21T06:02:46;30.73;;;5.25;;
71141;SDS011;58808;59.366;17.970;2023-03-21T06:05:12;10.90;;;8.05;;
71141;SDS011;58808;59.366;17.970;2023-03-21T06:07:38;43.42;;;14.70;;
71141;SDS011;58808;59.366;17.970;2023-03-21T06:10:04;25.52;;;7.00;;
71141;SDS011;58808;59.366;17.970;2023-03-21T06:12:30;9.35;;;7.22;;
71141;SDS011;58808;59.366;17.970;2023-03-21T06:14:56;25.67;;;5.85;;
71141;SDS011;58808;59.366;17.970;2023-03-21T06:17:22;11.15;;;7.03;;
71141;SDS011;58808;59.366;17.970;2023-03-21T06:19:48;20.70;;;16.58;;
71141;SDS011;58808;59.366;17.970;2023-03-21T06:22:14;9.43;;;8.43;;
71141;SDS011;58808;59.366;17.970;2023-03-21T06:24:40;10.38;;;7.20;;
71141;SDS011;58808;59.366;17.970;2023-03-21T06:27:06;14.27;;;7.35;;
71141;SDS011;58808;59.366;17.970;2023-03-21T06:29:32;27.50;;;11.45;;
71141;SDS011;58808;59.366;17.970;2023-03-21T06:31:58;24.98;;;8.35;;
71141;SDS011;58808;59.366;17.970;2023-03-21T06:34:23;17.80;;;10.82;;
71141;SDS011;58808;59.366;17.970;2023-03-21T06:36:50;33.38;;;24.75;;
71141;SDS011;58808;59.366;17.970;2023-03-21T06:39:18;13.40;;;8.85;;
71141;SDS011;58808;59.366;17.970;2023-03-21T06:41:45;11.13;;;7.82;;
71141;SDS011;58808;59.366;17.970;2023-03-21T06:44:11;16.50;;;14.82;;
71141;SDS011;58808;59.366;17.970;2023-03-21T06:46:36;15.43;;;9.38;;
71141;SDS011;58808;59.366;17.970;2023-03-21T06:49:02;15.73;;;9.18;;
71141;SDS011;58808;59.366;17.970;2023-03-21T06:51:28;16.75;;;15.25;;
71141;SDS011;58808;59.366;17.970;2023-03-21T06:53:54;9.65;;;6.50;;
71141;SDS011;58808;59.366;17.970;2023-03-21T06:56:20;15.73;;;7.60;;
71141;SDS011;58808;59.366;17.970;2023-03-21T06:58:46;15.93;;;8.20;;
71141;SDS011;58808;59.366;17.970;2023-03-21T07:01:12;12.70;;;10.82;;
71141;SDS011;58808;59.366;17.970;2023-03-21T07:03:38;75.25;;;19.02;;
71141;SDS011;58808;59.366;17.970;2023-03-21T07:06:05;58.17;;;38.60;;
71141;SDS011;58808;59.366;17.970;2023-03-21T07:08:33;22.10;;;10.93;;
71141;SDS011;58808;59.366;17.970;2023-03-21T07:10:59;34.20;;;10.95;;
71141;SDS011;58808;59.366;17.970;2023-03-21T07:13:25;14.07;;;8.85;;
71141;SDS011;58808;59.366;17.970;2023-03-21T07:15:51;10.90;;;9.35;;
71141;SDS011;58808;59.366;17.970;2023-03-21T07:18:18;15.48;;;7.10;;
71141;SDS011;58808;59.366;17.970;2023-03-21T07:20:47;21.85;;;8.55;;
71141;SDS011;58808;59.366;17.970;2023-03-21T07:23:20;37.17;;;7.22;;
71141;SDS011;58808;59.366;17.970;2023-03-21T07:25:48;20.13;;;7.00;;
71141;SDS011;58808;59.366;17.970;2023-03-21T07:28:14;16.60;;;9.45;;
71141;SDS011;58808;59.366;17.970;2023-03-21T07:30:41;14.35;;;5.45;;
71141;SDS011;58808;59.366;17.970;2023-03-21T07:33:07;20.15;;;7.03;;
71141;SDS011;58808;59.366;17.970;2023-03-21T07:35:34;8.02;;;7.15;;
71141;SDS011;58808;59.366;17.970;2023-03-21T07:38:01;9.10;;;6.55;;
71141;SDS011;58808;59.366;17.970;2023-03-21T07:40:28;31.15;;;18.05;;
71141;SDS011;58808;59.366;17.970;2023-03-21T07:42:54;6.00;;;3.42;;
71141;SDS011;58808;59.366;17.970;2023-03-21T07:45:20;21.88;;;6.45;;
71141;SDS011;58808;59.366;17.970;2023-03-21T07:47:47;14.10;;;12.90;;
71141;SDS011;58808;59.366;17.970;2023-03-21T07:50:14;15.10;;;5.10;;
71141;SDS011;58808;59.366;17.970;2023-03-21T07:52:39;7.28;;;6.55;;
71141;SDS011;58808;59.366;17.970;2023-03-21T07:55:06;5.20;;;3.83;;
71141;SDS011;58808;59.366;17.970;2023-03-21T07:57:32;21.20;;;6.80;;
71141;SDS011;58808;59.366;17.970;2023-03-21T07:59:58;27.02;;;25.17;;
71141;SDS011;58808;59.366;17.970;2023-03-21T08:02:24;37.60;;;34.95;;
71141;SDS011;58808;59.366;17.970;2023-03-21T08:04:50;8.25;;;2.92;;
71141;SDS011;58808;59.366;17.970;2023-03-21T08:07:16;20.77;;;19.33;;
71141;SDS011;58808;59.366;17.970;2023-03-21T08:09:42;9.10;;;3.28;;
71141;SDS011;58808;59.366;17.970;2023-03-21T08:12:08;15.43;;;13.85;;
71141;SDS011;58808;59.366;17.970;2023-03-21T08:14:35;5.75;;;5.18;;
71141;SDS011;58808;59.366;17.970;2023-03-21T08:17:05;11.88;;;10.68;;
71141;SDS011;58808;59.366;17.970;2023-03-21T08:19:31;4.60;;;4.05;;
71141;SDS011;58808;59.366;17.970;2023-03-21T08:21:57;16.13;;;15.05;;
71141;SDS011;58808;59.366;17.970;2023-03-21T08:24:26;6.63;;;6.05;;
71141;SDS011;58808;59.366;17.970;2023-03-21T08:26:52;8.73;;;3.95;;
71141;SDS011;58808;59.366;17.970;2023-03-21T08:29:18;5.10;;;4.60;;
71141;SDS011;58808;59.366;17.970;2023-03-21T08:31:45;5.22;;;4.60;;
71141;SDS011;58808;59.366;17.970;2023-03-21T08:34:11;4.82;;;4.43;;
71141;SDS011;58808;59.366;17.970;2023-03-21T08:36:37;22.00;;;12.35;;
71141;SDS011;58808;59.366;17.970;2023-03-21T08:39:04;28.90;;;27.05;;
71141;SDS011;58808;59.366;17.970;2023-03-21T08:41:30;8.10;;;7.50;;
71141;SDS011;58808;59.366;17.970;2023-03-21T08:44:00;8.45;;;5.22;;
71141;SDS011;58808;59.366;17.970;2023-03-21T08:46:26;4.50;;;3.83;;
71141;SDS011;58808;59.366;17.970;2023-03-21T08:48:52;4.57;;;4.20;;
71141;SDS011;58808;59.366;17.970;2023-03-21T08:51:18;4.22;;;3.83;;
71141;SDS011;58808;59.366;17.970;2023-03-21T08:53:44;3.65;;;3.25;;
71141;SDS011;58808;59.366;17.970;2023-03-21T08:56:10;7.95;;;7.45;;
71141;SDS011;58808;59.366;17.970;2023-03-21T08:58:36;2.90;;;2.60;;
71141;SDS011;58808;59.366;17.970;2023-03-21T09:01:03;6.60;;;6.07;;
71141;SDS011;58808;59.366;17.970;2023-03-21T09:03:31;5.95;;;5.40;;
71141;SDS011;58808;59.366;17.970;2023-03-21T09:05:57;2.80;;;2.35;;
71141;SDS011;58808;59.366;17.970;2023-03-21T09:08:23;2.05;;;1.90;;
71141;SDS011;58808;59.366;17.970;2023-03-21T09:10:53;2.85;;;2.13;;
71141;SDS011;58808;59.366;17.970;2023-03-21T09:13:19;3.75;;;2.10;;
71141;SDS011;58808;59.366;17.970;2023-03-21T09:15:45;2.20;;;2.00;;
71141;SDS011;58808;59.366;17.970;2023-03-21T09:18:12;2.63;;;2.03;;
71141;SDS011;58808;59.366;17.970;2023-03-21T09:20:44;2.53;;;2.25;;
71141;SDS011;58808;59.366;17.970;2023-03-21T09:23:11;2.15;;;1.95;;
71141;SDS011;58808;59.366;17.970;2023-03-21T09:25:41;3.97;;;3.33;;
71141;SDS011;58808;59.366;17.970;2023-03-21T09:28:09;3.42;;;2.17;;
71141;SDS011;58808;59.366;17.970;2023-03-21T09:30:37;3.05;;;2.45;;
71141;SDS011;58808;59.366;17.970;2023-03-21T09:33:03;3.00;;;2.70;;
71141;SDS011;58808;59.366;17.970;2023-03-21T09:35:43;2.13;;;2.03;;
71141;SDS011;58808;59.366;17.970;2023-03-21T09:38:08;4.10;;;2.70;;
71141;SDS011;58808;59.366;17.970;2023-03-21T09:40:54;3.58;;;2.08;;
71141;SDS011;58808;59.366;17.970;2023-03-21T09:46:05;1.70;;;1.60;;
71141;SDS011;58808;59.366;17.970;2023-03-21T09:48:55;7.78;;;4.28;;
71141;SDS011;58808;59.366;17.970;2023-03-21T09:51:37;1.92;;;1.23;;
71141;SDS011;58808;59.366;17.970;2023-03-21T09:54:06;2.72;;;2.05;;
71141;SDS011;58808;59.366;17.970;2023-03-21T09:56:41;1.92;;;1.40;;
71141;SDS011;58808;59.366;17.970;2023-03-21T09:59:13;1.65;;;1.20;;
71141;SDS011;58808;59.366;17.970;2023-03-21T10:01:49;1.20;;;1.20;;
71141;SDS011;58808;59.366;17.970;2023-03-21T10:04:15;1.80;;;1.17;;
71141;SDS011;58808;59.366;17.970;2023-03-21T10:06:43;1.00;;;1.00;;
71141;SDS011;58808;59.366;17.970;2023-03-21T10:09:16;1.02;;;1.02;;
71141;SDS011;58808;59.366;17.970;2023-03-21T10:11:56;1.27;;;1.17;;
71141;SDS011;58808;59.366;17.970;2023-03-21T10:14:30;0.80;;;0.80;;
71141;SDS011;58808;59.366;17.970;2023-03-21T10:17:42;0.80;;;0.80;;
71141;SDS011;58808;59.366;17.970;2023-03-21T10:19:50;0.98;;;0.95;;
71141;SDS011;58808;59.366;17.970;2023-03-21T10:22:35;1.48;;;1.38;;
71141;SDS011;58808;59.366;17.970;2023-03-21T10:25:02;3.15;;;0.90;;
71141;SDS011;58808;59.366;17.970;2023-03-21T10:27:29;0.60;;;0.60;;
71141;SDS011;58808;59.366;17.970;2023-03-21T10:29:57;0.73;;;0.73;;
71141;SDS011;58808;59.366;17.970;2023-03-21T10:32:25;1.20;;;1.10;;
71141;SDS011;58808;59.366;17.970;2023-03-21T10:34:54;2.47;;;1.00;;
71141;SDS011;58808;59.366;17.970;2023-03-21T10:37:22;1.45;;;1.05;;
71141;SDS011;58808;59.366;17.970;2023-03-21T10:39:49;2.25;;;1.05;;
71141;SDS011;58808;59.366;17.970;2023-03-21T10:44:49;5.10;;;1.60;;
71141;SDS011;58808;59.366;17.970;2023-03-21T10:47:21;5.90;;;3.00;;
71141;SDS011;58808;59.366;17.970;2023-03-21T10:49:52;0.90;;;0.90;;
71141;SDS011;58808;59.366;17.970;2023-03-21T10:52:19;3.13;;;1.08;;
71141;SDS011;58808;59.366;17.970;2023-03-21T10:54:47;0.70;;;0.70;;
71141;SDS011;58808;59.366;17.970;2023-03-21T10:57:22;3.10;;;0.88;;
71141;SDS011;58808;59.366;17.970;2023-03-21T11:02:25;1.98;;;1.20;;
71141;SDS011;58808;59.366;17.970;2023-03-21T11:04:55;0.80;;;0.80;;
71141;SDS011;58808;59.366;17.970;2023-03-21T11:07:22;0.80;;;0.80;;
71141;SDS011;58808;59.366;17.970;2023-03-21T11:09:56;5.18;;;0.90;;
71141;SDS011;58808;59.366;17.970;2023-03-21T11:13:00;0.82;;;0.82;;
71141;SDS011;58808;59.366;17.970;2023-03-21T11:18:12;0.68;;;0.65;;
71141;SDS011;58808;59.366;17.970;2023-03-21T11:23:16;0.85;;;0.85;;
71141;SDS011;58808;59.366;17.970;2023-03-21T11:25:43;2.08;;;0.90;;
71141;SDS011;58808;59.366;17.970;2023-03-21T11:28:17;0.68;;;0.68;;
71141;SDS011;58808;59.366;17.970;2023-03-21T11:30:58;1.45;;;0.93;;
71141;SDS011;58808;59.366;17.970;2023-03-21T11:33:27;3.03;;;0.82;;
71141;SDS011;58808;59.366;17.970;2023-03-21T11:36:05;11.52;;;6.50;;
71141;SDS011;58808;59.366;17.970;2023-03-21T11:38:35;6.70;;;2.72;;
71141;SDS011;58808;59.366;17.970;2023-03-21T11:41:02;1.58;;;1.00;;
71141;SDS011;58808;59.366;17.970;2023-03-21T11:43:36;2.85;;;0.80;;
71141;SDS011;58808;59.366;17.970;2023-03-21T11:48:29;1.48;;;1.10;;
71141;SDS011;58808;59.366;17.970;2023-03-21T12:04:17;0.82;;;0.68;;
71141;SDS011;58808;59.366;17.970;2023-03-21T12:15:37;2.90;;;0.73;;
71141;SDS011;58808;59.366;17.970;2023-03-21T12:18:28;1.25;;;0.82;;
71141;SDS011;58808;59.366;17.970;2023-03-21T12:33:01;1.85;;;1.20;;
71141;SDS011;58808;59.366;17.970;2023-03-21T12:35:47;1.67;;;1.00;;
71141;SDS011;58808;59.366;17.970;2023-03-21T12:46:29;1.90;;;0.80;;
71141;SDS011;58808;59.366;17.970;2023-03-21T12:51:56;2.80;;;1.02;;
71141;SDS011;58808;59.366;17.970;2023-03-21T12:54:46;4.25;;;1.30;;
71141;SDS011;58808;59.366;17.970;2023-03-21T12:57:20;1.27;;;0.80;;
71141;SDS011;58808;59.366;17.970;2023-03-21T13:02:42;1.25;;;1.00;;
71141;SDS011;58808;59.366;17.970;2023-03-21T13:07:45;3.33;;;1.00;;
71141;SDS011;58808;59.366;17.970;2023-03-21T13:10:19;0.60;;;0.60;;
71141;SDS011;58808;59.366;17.970;2023-03-21T13:15:35;0.98;;;0.85;;
71141;SDS011;58808;59.366;17.970;2023-03-21T13:18:20;3.97;;;0.90;;
71141;SDS011;58808;59.366;17.970;2023-03-21T13:20:57;1.77;;;0.90;;
71141;SDS011;58808;59.366;17.970;2023-03-21T13:23:35;1.45;;;0.80;;
71141;SDS011;58808;59.366;17.970;2023-03-21T13:26:02;0.90;;;0.80;;
71141;SDS011;58808;59.366;17.970;2023-03-21T13:28:33;5.07;;;1.00;;
71141;SDS011;58808;59.366;17.970;2023-03-21T13:31:16;1.75;;;0.75;;
71141;SDS011;58808;59.366;17.970;2023-03-21T13:33:45;4.25;;;1.40;;
71141;SDS011;58808;59.366;17.970;2023-03-21T13:36:17;1.75;;;0.90;;
71141;SDS011;58808;59.366;17.970;2023-03-21T13:38:49;4.35;;;0.90;;
71141;SDS011;58808;59.366;17.970;2023-03-21T13:41:20;1.05;;;0.80;;
71141;SDS011;58808;59.366;17.970;2023-03-21T13:51:40;0.80;;;0.80;;
71141;SDS011;58808;59.366;17.970;2023-03-21T13:54:18;1.23;;;0.82;;
71141;SDS011;58808;59.366;17.970;2023-03-21T13:56:50;2.15;;;0.70;;
71141;SDS011;58808;59.366;17.970;2023-03-21T13:59:42;0.90;;;0.90;;
71141;SDS011;58808;59.366;17.970;2023-03-21T14:04:51;2.83;;;0.77;;
71141;SDS011;58808;59.366;17.970;2023-03-21T14:07:35;0.90;;;0.90;;
71141;SDS011;58808;59.366;17.970;2023-03-21T14:10:27;0.70;;;0.70;;
71141;SDS011;58808;59.366;17.970;2023-03-21T14:12:57;4.10;;;0.98;;
71141;SDS011;58808;59.366;17.970;2023-03-21T14:15:25;5.13;;;1.15;;
71141;SDS011;58808;59.366;17.970;2023-03-21T14:17:54;0.88;;;0.77;;
71141;SDS011;58808;59.366;17.970;2023-03-21T14:20:23;3.33;;;0.70;;
71141;SDS011;58808;59.366;17.970;2023-03-21T14:22:54;0.90;;;0.90;;
71141;SDS011;58808;59.366;17.970;2023-03-21T14:25:20;0.80;;;0.80;;
71141;SDS011;58808;59.366;17.970;2023-03-21T14:27:49;0.80;;;0.70;;
71141;SDS011;58808;59.366;17.970;2023-03-21T14:30:19;1.10;;;0.80;;
71141;SDS011;58808;59.366;17.970;2023-03-21T14:32:48;3.38;;;1.60;;
71141;SDS011;58808;59.366;17.970;2023-03-21T14:35:14;1.63;;;0.90;;
71141;SDS011;58808;59.366;17.970;2023-03-21T14:37:40;3.42;;;1.00;;
71141;SDS011;58808;59.366;17.970;2023-03-21T14:40:18;4.30;;;1.70;;
71141;SDS011;58808;59.366;17.970;2023-03-21T14:42:46;2.55;;;1.40;;
71141;SDS011;58808;59.366;17.970;2023-03-21T14:47:58;1.30;;;1.15;;
71141;SDS011;58808;59.366;17.970;2023-03-21T14:53:18;1.50;;;1.10;;
71141;SDS011;58808;59.366;17.970;2023-03-21T14:58:22;1.30;;;0.95;;
71141;SDS011;58808;59.366;17.970;2023-03-21T15:00:51;3.33;;;0.90;;
71141;SDS011;58808;59.366;17.970;2023-03-21T15:03:19;3.30;;;1.05;;
71141;SDS011;58808;59.366;17.970;2023-03-21T15:05:47;1.73;;;1.00;;
71141;SDS011;58808;59.366;17.970;2023-03-21T15:08:15;2.95;;;0.80;;
71141;SDS011;58808;59.366;17.970;2023-03-21T15:10:52;1.10;;;1.02;;
71141;SDS011;58808;59.366;17.970;2023-03-21T15:13:21;5.50;;;1.23;;
71141;SDS011;58808;59.366;17.970;2023-03-21T15:15:56;3.55;;;1.17;;
71141;SDS011;58808;59.366;17.970;2023-03-21T15:18:26;1.15;;;1.05;;
71141;SDS011;58808;59.366;17.970;2023-03-21T15:20:54;3.25;;;1.40;;
71141;SDS011;58808;59.366;17.970;2023-03-21T15:23:30;0.90;;;0.90;;
71141;SDS011;58808;59.366;17.970;2023-03-21T15:25:56;3.65;;;0.80;;
71141;SDS011;58808;59.366;17.970;2023-03-21T15:28:25;2.03;;;1.00;;
71141;SDS011;58808;59.366;17.970;2023-03-21T15:30:51;2.85;;;1.13;;
71141;SDS011;58808;59.366;17.970;2023-03-21T15:33:18;5.68;;;1.10;;
71141;SDS011;58808;59.366;17.970;2023-03-21T15:35:48;1.75;;;0.90;;
71141;SDS011;58808;59.366;17.970;2023-03-21T15:38:22;3.63;;;2.47;;
71141;SDS011;58808;59.366;17.970;2023-03-21T15:43:39;4.63;;;1.00;;
71141;SDS011;58808;59.366;17.970;2023-03-21T15:46:12;3.17;;;1.17;;
71141;SDS011;58808;59.366;17.970;2023-03-21T15:49:07;3.13;;;0.95;;
71141;SDS011;58808;59.366;17.970;2023-03-21T15:51:33;1.30;;;1.08;;
71141;SDS011;58808;59.366;17.970;2023-03-21T15:54:00;1.10;;;1.00;;
71141;SDS011;58808;59.366;17.970;2023-03-21T15:56:27;7.47;;;1.00;;
71141;SDS011;58808;59.366;17.970;2023-03-21T15:58:59;1.88;;;1.00;;
71141;SDS011;58808;59.366;17.970;2023-03-21T16:01:29;1.80;;;1.30;;
71141;SDS011;58808;59.366;17.970;2023-03-21T16:04:04;1.63;;;0.95;;
71141;SDS011;58808;59.366;17.970;2023-03-21T16:06:36;1.50;;;1.08;;
71141;SDS011;58808;59.366;17.970;2023-03-21T16:14:05;0.90;;;0.90;;
71141;SDS011;58808;59.366;17.970;2023-03-21T16:16:31;10.68;;;3.85;;
71141;SDS011;58808;59.366;17.970;2023-03-21T16:18:58;0.90;;;0.90;;
71141;SDS011;58808;59.366;17.970;2023-03-21T16:21:26;0.93;;;0.90;;
71141;SDS011;58808;59.366;17.970;2023-03-21T16:23:54;3.63;;;1.35;;
71141;SDS011;58808;59.366;17.970;2023-03-21T16:26:21;0.98;;;0.95;;
71141;SDS011;58808;59.366;17.970;2023-03-21T16:28:49;8.70;;;1.17;;
71141;SDS011;58808;59.366;17.970;2023-03-21T16:31:20;1.83;;;0.98;;
71141;SDS011;58808;59.366;17.970;2023-03-21T16:33:48;6.15;;;1.25;;
71141;SDS011;58808;59.366;17.970;2023-03-21T16:36:25;9.20;;;2.35;;
71141;SDS011;58808;59.366;17.970;2023-03-21T16:38:55;41.13;;;19.20;;
71141;SDS011;58808;59.366;17.970;2023-03-21T16:41:22;5.35;;;1.60;;
71141;SDS011;58808;59.366;17.970;2023-03-21T16:43:49;1.30;;;1.20;;
71141;SDS011;58808;59.366;17.970;2023-03-21T16:48:44;0.90;;;0.90;;
71141;SDS011;58808;59.366;17.970;2023-03-21T16:51:15;3.03;;;1.08;;
71141;SDS011;58808;59.366;17.970;2023-03-21T16:53:42;2.30;;;1.30;;
71141;SDS011;58808;59.366;17.970;2023-03-21T16:56:26;8.93;;;1.48;;
71141;SDS011;58808;59.366;17.970;2023-03-21T16:58:55;2.35;;;1.20;;
71141;SDS011;58808;59.366;17.970;2023-03-21T17:01:22;8.18;;;1.48;;
71141;SDS011;58808;59.366;17.970;2023-03-21T17:03:54;2.13;;;1.50;;